This is the latest recevied weather packets stored in our database for station/object OK1TOM-6. If no packets are shown the sender has not sent any weather packets the latest 10 day(s).
| Time | Temp. | Humidity | Pressure | Rain* | Wind** | Luminosity | Snow |
|---|---|---|---|---|---|---|---|
| 1777973124 | 20.56° C | 48% | 1011.2 hPa | 0 mm | - | - | - |
| 1777972520 | 20.56° C | 49% | 1011.1 hPa | 0 mm | - | - | - |
| 1777971917 | 20° C | 53% | 1011.2 hPa | 0 mm | - | - | - |
| 1777971373 | 20° C | 53% | 1011.4 hPa | 0 mm | - | - | - |
| 1777970770 | 19.44° C | 55% | 1011.4 hPa | 0 mm | - | - | - |
| 1777970167 | 19.44° C | 57% | 1011.4 hPa | 0 mm | - | - | - |
| 1777969563 | 18.89° C | 57% | 1011.5 hPa | 0 mm | - | - | - |
| 1777968960 | 18.33° C | 59% | 1011.5 hPa | 0 mm | - | - | - |
| 1777968357 | 17.78° C | 61% | 1011.6 hPa | 0 mm | - | - | - |
| 1777967753 | 17.78° C | 61% | 1011.7 hPa | 0 mm | - | - | - |
| 1777967150 | 17.22° C | 63% | 1011.7 hPa | 0 mm | - | - | - |
| 1777966546 | 16.67° C | 64% | 1011.7 hPa | 0 mm | - | - | - |
| 1777965943 | 16.67° C | 63% | 1011.8 hPa | 0 mm | - | - | - |
| 1777965339 | 16.67° C | 63% | 1011.9 hPa | 0 mm | - | - | - |
| 1777964736 | 16.67° C | 64% | 1012 hPa | 0 mm | - | - | - |
| 1777964133 | 16.67° C | 64% | 1012 hPa | 0 mm | - | - | - |
| 1777963529 | 16.11° C | 65% | 1012.1 hPa | 0 mm | - | - | - |
| 1777962926 | 16.67° C | 64% | 1012.2 hPa | 0 mm | - | - | - |
| 1777962322 | 16.67° C | 64% | 1012.2 hPa | 0 mm | - | - | - |
| 1777961719 | 15.56° C | 66% | 1012.1 hPa | 0 mm | - | - | - |
| 1777961115 | 15° C | 71% | 1012.2 hPa | 0 mm | - | - | - |
| 1777960572 | 13.89° C | 77% | 1012.2 hPa | 0 mm | - | - | - |
| 1777959969 | 12.78° C | 83% | 1012.2 hPa | 0 mm | - | - | - |
| 1777959365 | 12.78° C | 84% | 1012.3 hPa | 0 mm | - | - | - |
| 1777958762 | 12.78° C | 84% | 1012.2 hPa | 0 mm | - | - | - |
* Rain latest hour (hover to see other rain measurements)
** Current wind speed in m/s (hover to see current wind gust speed)